Time;durP1;ratioP1;P1;durP2;ratioP2;P2;SDS_P1;SDS_P2;PMS_P1;PMS_P2;Temp;Humidity;BMP_temperature;BMP_pressure;BME280_temperature;BME280_humidity;BME280_pressure;Samples;Min_cycle;Max_cycle;Signal;HPM_P1;HPM_P2
2021/12/31 00:02:26;;;;;;;91.20;58.08;;;256.40;2252.80;;;;;;5039795;28;20037;-60
2021/12/31 00:04:52;;;;;;;94.18;59.90;;;256.30;2252.80;;;;;;5044880;28;20074;-66
2021/12/31 00:07:18;;;;;;;89.68;60.95;;;256.20;2252.80;;;;;;5050891;28;20025;-62
2021/12/31 00:09:43;;;;;;;97.38;61.45;;;256.30;2252.80;;;;;;5053577;28;20048;-63
2021/12/31 00:12:10;;;;;;;113.55;71.53;;;;;;;;;;5039811;28;20033;-66
2021/12/31 00:14:37;;;;;;;107.72;69.90;;;;;;;;;;5033602;28;20025;-65
2021/12/31 00:17:03;;;;;;;100.20;63.92;;;;;;;;;;5046037;28;20021;-67
2021/12/31 00:19:32;;;;;;;105.05;67.53;;;;;;;;;;5053877;28;20450;-64
2021/12/31 00:22:08;;;;;;;132.25;90.53;;;256.50;2252.80;;;;;;5052449;28;20099;-67
2021/12/31 00:24:35;;;;;;;101.80;74.65;;;;;;;;;;5053567;28;20045;-66
2021/12/31 00:27:00;;;;;;;96.68;64.05;;;256.70;2252.80;;;;;;5053079;28;20017;-67
2021/12/31 00:29:27;;;;;;;90.70;60.28;;;256.50;2252.80;;;;;;5053278;28;20079;-67
2021/12/31 00:31:53;;;;;;;86.97;57.35;;;256.50;2252.80;;;;;;5052674;28;20041;-68
2021/12/31 00:34:19;;;;;;;106.85;66.57;;;;;;;;;;5052985;28;20040;-68
2021/12/31 00:36:46;;;;;;;107.65;72.50;;;;;;;;;;5047592;28;20096;-66
2021/12/31 00:39:13;;;;;;;115.60;76.07;;;;;;;;;;5048535;28;20021;-65
2021/12/31 00:41:39;;;;;;;126.55;82.18;;;;;;;;;;5052811;28;20021;-65
2021/12/31 00:44:05;;;;;;;121.70;75.25;;;;;;;;;;5052919;28;20048;-66
2021/12/31 00:46:32;;;;;;;112.38;72.28;;;;;;;;;;5052791;28;20500;-64
2021/12/31 00:48:58;;;;;;;121.07;78.32;;;;;;;;;;5052688;28;20108;-67
2021/12/31 00:51:25;;;;;;;171.27;105.53;;;;;;;;;;5052838;28;20028;-66
2021/12/31 00:53:51;;;;;;;172.65;103.70;;;;;;;;;;5044618;28;20060;-67
2021/12/31 00:56:17;;;;;;;125.30;79.70;;;;;;;;;;5032913;28;20033;-65
2021/12/31 00:58:43;;;;;;;135.23;83.85;;;;;;;;;;5032973;28;20036;-65
2021/12/31 01:01:16;;;;;;;138.30;85.63;;;;;;;;;;5032856;28;20030;-66
2021/12/31 01:03:42;;;;;;;144.95;91.82;;;;;;;;;;5032506;28;20056;-67
2021/12/31 01:06:08;;;;;;;159.38;105.03;;;;;;;;;;5032574;28;20022;-67
2021/12/31 01:08:35;;;;;;;187.32;121.55;;;;;;;;;;5042551;28;20087;-67
2021/12/31 01:11:01;;;;;;;179.20;107.57;;;;;;;;;;5051832;28;20017;-64
2021/12/31 01:13:36;;;;;;;168.48;104.65;;;;;;;;;;5052480;28;20120;-67
2021/12/31 01:16:03;;;;;;;221.73;129.75;;;;;;;;;;5052439;28;20374;-67
2021/12/31 01:21:16;;;;;;;162.88;105.68;;;256.60;2252.80;;;;;;5049989;28;20037;-65
2021/12/31 01:23:42;;;;;;;208.50;131.63;;;256.60;2252.80;;;;;;5049821;28;20394;-66
2021/12/31 01:26:08;;;;;;;352.83;208.15;;;256.60;2252.80;;;;;;5049708;28;20112;-63
2021/12/31 01:28:34;;;;;;;317.17;196.63;;;256.50;2252.80;;;;;;5049825;28;20442;-67
2021/12/31 01:31:00;;;;;;;283.08;188.18;;;;;;;;;;5049586;28;20204;-66
2021/12/31 01:33:26;;;;;;;266.48;183.18;;;256.70;2252.80;;;;;;5049914;28;20048;-67
2021/12/31 01:35:51;;;;;;;276.50;183.93;;;256.50;2252.80;;;;;;5049957;28;20211;-66
2021/12/31 01:38:18;;;;;;;306.50;209.07;;;256.60;2252.80;;;;;;5049588;28;20411;-67
2021/12/31 01:40:44;;;;;;;280.80;192.40;;;256.50;2252.80;;;;;;5049590;28;20021;-67
2021/12/31 01:43:13;;;;;;;279.60;186.85;;;256.50;2252.80;;;;;;5049704;28;20033;-66
2021/12/31 01:45:53;;;;;;;284.17;192.00;;;256.50;2252.80;;;;;;5049697;28;20041;-64
2021/12/31 01:48:25;;;;;;;225.52;148.18;;;256.60;2252.80;;;;;;5049609;28;20040;-65
2021/12/31 01:50:52;;;;;;;209.20;140.48;;;256.50;2252.80;;;;;;5049470;28;20025;-66
2021/12/31 01:53:22;;;;;;;212.57;135.48;;;256.20;2252.80;;;;;;5049329;28;20064;-67
2021/12/31 01:55:50;;;;;;;227.77;148.25;;;256.40;2252.80;;;;;;5049915;28;20021;-66
2021/12/31 01:58:20;;;;;;;224.27;144.35;;;256.30;2252.80;;;;;;5050664;28;20086;-65
2021/12/31 02:00:47;;;;;;;220.93;140.13;;;256.40;2252.80;;;;;;5051526;28;20167;-67
2021/12/31 02:03:13;;;;;;;204.07;130.88;;;256.40;2252.80;;;;;;5051637;28;20029;-65
2021/12/31 02:05:39;;;;;;;145.38;98.93;;;256.40;2252.80;;;;;;5051820;28;20053;-67
2021/12/31 02:08:05;;;;;;;132.25;89.63;;;256.40;2252.80;;;;;;5051604;28;20082;-65
2021/12/31 02:10:31;;;;;;;123.75;81.25;;;;;;;;;;5051443;28;20032;-65
2021/12/31 02:12:58;;;;;;;91.03;62.40;;;;;;;;;;5051385;28;20118;-65
2021/12/31 02:15:30;;;;;;;72.95;50.55;;;;;;;;;;5051733;28;20035;-64
2021/12/31 02:17:56;;;;;;;78.18;50.05;;;;;;;;;;5051647;28;20584;-65
2021/12/31 02:20:23;;;;;;;63.13;43.67;;;;;;;;;;5051748;28;20441;-64
2021/12/31 02:23:07;;;;;;;59.80;41.67;;;;;;;;;;5055294;28;20063;-67
2021/12/31 02:25:35;;;;;;;60.55;43.42;;;;;;;;;;5055388;28;20029;-65
2021/12/31 02:28:01;;;;;;;53.75;39.10;;;;;;;;;;5055806;28;20113;-67
2021/12/31 02:30:29;;;;;;;51.80;37.53;;;;;;;;;;5055306;28;20071;-66
2021/12/31 02:32:55;;;;;;;54.35;38.83;;;;;;;;;;5055281;28;20435;-66
2021/12/31 02:35:21;;;;;;;55.67;40.70;;;;;;;;;;5055332;28;20497;-68
2021/12/31 02:37:48;;;;;;;47.70;33.35;;;;;;;;;;5055311;28;20013;-67
2021/12/31 02:40:15;;;;;;;41.85;31.85;;;;;;;;;;5055312;28;20063;-66
2021/12/31 02:42:41;;;;;;;45.17;30.85;;;;;;;;;;5055087;28;20033;-66
2021/12/31 02:45:08;;;;;;;40.72;28.52;;;;;;;;;;5055239;28;20044;-68
2021/12/31 02:47:34;;;;;;;41.67;30.13;;;;;;;;;;5055122;28;20115;-67
2021/12/31 02:50:04;;;;;;;45.28;31.80;;;;;;;;;;5055200;28;20021;-67
2021/12/31 02:52:30;;;;;;;47.55;34.45;;;;;;;;;;5055254;28;20058;-68
2021/12/31 02:54:56;;;;;;;42.67;28.98;;;;;;;;;;5055203;28;20025;-66
2021/12/31 02:57:23;;;;;;;41.63;29.38;;;;;;;;;;5050346;28;20071;-68
2021/12/31 02:59:49;;;;;;;43.75;30.30;;;;;;;;;;5044323;28;20069;-64
2021/12/31 03:02:18;;;;;;;40.58;29.30;;;;;;;;;;5034961;28;20033;-65
2021/12/31 03:04:44;;;;;;;41.15;28.80;;;;;;;;;;5034874;28;20017;-65
2021/12/31 03:07:10;;;;;;;41.72;28.15;;;;;;;;;;5034852;28;20025;-65
2021/12/31 03:09:37;;;;;;;43.40;30.55;;;;;;;;;;5037062;28;20487;-65
2021/12/31 03:12:06;;;;;;;45.67;31.02;;;231.20;2252.80;;;;;;5034480;28;20025;-63
2021/12/31 03:14:33;;;;;;;47.00;32.80;;;231.30;2252.80;;;;;;5034589;28;20119;-65
2021/12/31 03:17:01;;;;;;;52.35;35.28;;;;;;;;;;5034588;28;20029;-65
2021/12/31 03:19:27;;;;;;;56.40;37.85;;;;;;;;;;5034677;28;20021;-65
2021/12/31 03:21:52;;;;;;;54.35;35.85;;;231.10;2252.80;;;;;;5034524;28;20108;-68
2021/12/31 03:24:18;;;;;;;54.40;35.60;;;231.00;2252.80;;;;;;5034450;28;20108;-66
2021/12/31 03:26:44;;;;;;;47.22;31.50;;;230.90;2252.80;;;;;;5034379;28;20383;-65
2021/12/31 03:29:09;;;;;;;46.42;32.53;;;230.90;2252.80;;;;;;5034680;28;20021;-67
2021/12/31 03:31:35;;;;;;;50.03;31.70;;;231.00;2252.80;;;;;;5034094;28;20507;-67
2021/12/31 03:34:01;;;;;;;52.55;32.92;;;;;;;;;;5033198;28;20049;-64
2021/12/31 03:36:28;;;;;;;50.72;34.83;;;;;;;;;;5034475;28;20060;-66
2021/12/31 03:38:54;;;;;;;54.80;36.72;;;;;;;;;;5046473;28;20064;-64
2021/12/31 03:41:20;;;;;;;59.28;37.13;;;;;;;;;;5054018;28;20017;-67
2021/12/31 03:43:46;;;;;;;78.75;52.33;;;256.20;2252.80;;;;;;5054085;28;20028;-67
2021/12/31 03:46:12;;;;;;;90.20;57.72;;;256.30;2252.80;;;;;;5053779;28;20502;-67
2021/12/31 03:48:39;;;;;;;83.05;50.58;;;256.40;2252.80;;;;;;5054330;28;20029;-66
2021/12/31 03:51:05;;;;;;;53.28;37.03;;;;;;;;;;5054026;28;20013;-68
2021/12/31 03:53:31;;;;;;;60.33;38.88;;;;;;;;;;5053909;28;20482;-67
2021/12/31 03:55:57;;;;;;;66.13;45.30;;;;;;;;;;5046451;28;20112;-68
2021/12/31 03:58:23;;;;;;;55.05;40.17;;;;;;;;;;5052419;28;20025;-67
2021/12/31 04:00:49;;;;;;;45.28;32.63;;;;;;;;;;5053540;28;20502;-67
2021/12/31 04:03:16;;;;;;;48.83;32.40;;;;;;;;;;5044387;28;20429;-66
2021/12/31 04:05:43;;;;;;;43.22;29.50;;;;;;;;;;5033773;28;20021;-67
2021/12/31 04:08:10;;;;;;;46.22;31.45;;;;;;;;;;5047482;28;20080;-65
2021/12/31 04:10:36;;;;;;;50.53;34.83;;;;;;;;;;5050797;28;20650;-67
2021/12/31 04:13:02;;;;;;;49.70;33.90;;;;;;;;;;5033617;28;20065;-66
2021/12/31 04:15:28;;;;;;;58.13;38.47;;;;;;;;;;5033681;28;20061;-68
2021/12/31 04:17:54;;;;;;;65.15;42.78;;;;;;;;;;5033593;28;20022;-65
2021/12/31 04:20:32;;;;;;;66.45;44.67;;;;;;;;;;5033655;28;20028;-67
2021/12/31 04:23:00;;;;;;;62.33;42.88;;;;;;;;;;5033562;28;20045;-67
2021/12/31 04:25:27;;;;;;;61.75;42.15;;;;;;;;;;5033296;28;20063;-67
2021/12/31 04:27:53;;;;;;;73.07;47.03;;;;;;;;;;5033104;28;20120;-67
2021/12/31 04:30:19;;;;;;;83.03;56.70;;;;;;;;;;5033065;28;20064;-65
2021/12/31 04:32:45;;;;;;;85.53;57.92;;;;;;;;;;5033111;28;20091;-61
2021/12/31 04:35:12;;;;;;;80.60;51.88;;;;;;;;;;5033155;28;20072;-65
2021/12/31 04:37:40;;;;;;;97.32;61.80;;;;;;;;;;5034540;28;20024;-65
2021/12/31 04:40:10;;;;;;;85.28;56.10;;;;;;;;;;5052821;28;20077;-66
2021/12/31 04:42:36;;;;;;;83.53;53.00;;;;;;;;;;5052863;28;20017;-63
2021/12/31 04:45:03;;;;;;;81.22;53.33;;;256.30;2252.80;;;;;;5051638;28;20025;-66
2021/12/31 04:47:29;;;;;;;57.53;36.65;;;256.30;2252.80;;;;;;5053095;28;20082;-67
2021/12/31 04:49:55;;;;;;;53.63;38.20;;;256.40;2252.80;;;;;;5053485;28;20406;-66
2021/12/31 04:52:21;;;;;;;53.63;35.58;;;;;;;;;;5052547;28;20028;-65
2021/12/31 04:54:47;;;;;;;55.65;34.30;;;256.90;2252.80;;;;;;5052729;28;20378;-62
2021/12/31 04:57:12;;;;;;;49.70;36.22;;;281.60;2278.40;;;;;;5049055;28;20097;-64
2021/12/31 04:59:38;;;;;;;48.83;33.85;;;281.70;2278.40;;;;;;5032673;28;20023;-63
2021/12/31 05:02:04;;;;;;;48.47;31.73;;;281.70;2278.40;;;;;;5032657;28;20032;-64
2021/12/31 05:04:30;;;;;;;46.28;31.92;;;281.70;2278.40;;;;;;5032637;28;20378;-63
2021/12/31 05:06:55;;;;;;;49.13;33.13;;;256.90;2252.80;;;;;;5031368;28;20022;-63
2021/12/31 05:09:21;;;;;;;54.42;35.60;;;281.60;2278.40;;;;;;5047460;28;20031;-60
2021/12/31 05:11:47;;;;;;;60.13;39.10;;;281.70;2278.40;;;;;;5052472;28;20083;-62
2021/12/31 05:14:13;;;;;;;66.50;43.45;;;;;;;;;;5052145;28;20498;-67
2021/12/31 05:16:39;;;;;;;64.95;44.03;;;281.70;2278.40;;;;;;5052261;28;20494;-63
2021/12/31 05:19:05;;;;;;;67.90;44.97;;;281.80;2278.40;;;;;;5052380;28;20100;-63
2021/12/31 05:21:31;;;;;;;63.42;43.38;;;281.80;2278.40;;;;;;5052407;28;20506;-65
2021/12/31 05:23:58;;;;;;;73.80;45.88;;;281.80;2278.40;;;;;;5047787;28;20033;-60
2021/12/31 05:26:24;;;;;;;73.60;48.88;;;281.70;2278.40;;;;;;5032148;28;20031;-60
2021/12/31 05:28:50;;;;;;;69.75;48.45;;;281.70;2278.40;;;;;;5031009;28;20037;-66
2021/12/31 05:31:16;;;;;;;78.35;52.10;;;281.80;2278.40;;;;;;5031843;28;20044;-64
2021/12/31 05:33:43;;;;;;;77.63;52.85;;;;;;;;;;5032163;28;20073;-65
2021/12/31 05:36:09;;;;;;;71.13;45.55;;;;;;;;;;5032145;28;20399;-61
2021/12/31 05:38:35;;;;;;;91.22;62.40;;;;;;;;;;5040560;28;20017;-66
2021/12/31 05:41:01;;;;;;;100.85;67.22;;;;;;;;;;5051882;28;20090;-63
2021/12/31 05:43:27;;;;;;;121.57;85.75;;;;;;;;;;5052272;28;20049;-64
2021/12/31 05:45:53;;;;;;;123.50;87.57;;;;;;;;;;5052487;28;20075;-62
2021/12/31 05:48:20;;;;;;;137.77;98.47;;;;;;;;;;5051933;28;20035;-61
2021/12/31 05:50:46;;;;;;;161.23;113.65;;;;;;;;;;5051990;28;20476;-62
2021/12/31 05:53:12;;;;;;;172.40;117.43;;;;;;;;;;5051949;28;20568;-62
2021/12/31 05:55:38;;;;;;;164.68;115.15;;;;;;;;;;5051322;28;20013;-68
2021/12/31 05:58:05;;;;;;;175.40;124.88;;;;;;;;;;5051832;28;20111;-60
2021/12/31 06:00:31;;;;;;;184.60;128.57;;;;;;;;;;5051797;28;20541;-60
2021/12/31 06:02:57;;;;;;;187.23;134.15;;;;;;;;;;5052186;28;20123;-60
2021/12/31 06:05:25;;;;;;;191.25;136.48;;;;;;;;;;5051820;28;20099;-62
2021/12/31 06:07:52;;;;;;;198.00;135.05;;;;;;;;;;5051689;28;20052;-62
2021/12/31 06:10:18;;;;;;;177.80;126.63;;;;;;;;;;5050487;28;20100;-64
2021/12/31 06:12:45;;;;;;;178.70;119.70;;;;;;;;;;5035780;28;20031;-65
2021/12/31 06:15:13;;;;;;;175.75;121.72;;;;;;;;;;5031842;28;20440;-62
2021/12/31 06:17:40;;;;;;;169.45;115.72;;;;;;;;;;5031838;28;20029;-60
2021/12/31 06:20:06;;;;;;;183.93;128.23;;;;;;;;;;5031853;28;20057;-65
2021/12/31 06:22:32;;;;;;;189.93;138.32;;;;;;;;;;5031805;28;20021;-60
2021/12/31 06:24:59;;;;;;;249.02;176.75;;;;;;;;;;5031647;28;20076;-63
2021/12/31 06:27:25;;;;;;;321.83;193.43;;;;;;;;;;5045940;28;20021;-65
2021/12/31 06:29:51;;;;;;;347.65;202.63;;;;;;;;;;5051393;28;20482;-64
2021/12/31 06:32:17;;;;;;;305.38;180.80;;;;;;;;;;5051382;28;20084;-63
2021/12/31 06:34:43;;;;;;;150.45;100.38;;;;;;;;;;5051603;28;20035;-63
2021/12/31 06:37:09;;;;;;;111.07;73.90;;;;;;;;;;5051507;28;20040;-64
2021/12/31 06:39:36;;;;;;;141.23;93.25;;;;;;;;;;5051596;28;20065;-64
2021/12/31 06:42:03;;;;;;;227.23;139.55;;;;;;;;;;5052056;28;20075;-65
2021/12/31 06:44:30;;;;;;;281.83;167.50;;;;;;;;;;5043163;28;20030;-63
2021/12/31 06:46:56;;;;;;;281.45;175.00;;;;;;;;;;5031612;28;20098;-62
2021/12/31 06:49:22;;;;;;;356.40;215.95;;;;;;;;;;5031582;28;20096;-61
2021/12/31 06:51:48;;;;;;;319.38;199.73;;;;;;;;;;5036370;28;20040;-66
2021/12/31 06:54:14;;;;;;;280.80;178.07;;;;;;;;;;5035444;28;20033;-61
2021/12/31 06:56:40;;;;;;;290.27;187.55;;;;;;;;;;5031219;28;20029;-66
2021/12/31 06:59:06;;;;;;;287.55;194.88;;;;;;;;;;5031374;28;20029;-66
2021/12/31 07:01:33;;;;;;;277.27;198.90;;;;;;;;;;5031380;28;20029;-62
2021/12/31 07:03:59;;;;;;;274.33;191.05;;;;;;;;;;5031442;28;20024;-65
2021/12/31 07:06:25;;;;;;;253.00;177.80;;;;;;;;;;5031466;28;20112;-64
2021/12/31 07:08:50;;;;;;;242.82;171.88;;;256.60;2252.80;;;;;;5043378;28;20029;-65
2021/12/31 07:11:19;;;;;;;228.88;160.45;;;256.40;2252.80;;;;;;5054940;28;20021;-65
2021/12/31 07:13:45;;;;;;;236.30;167.13;;;256.50;2252.80;;;;;;5054765;28;20109;-63
2021/12/31 07:16:11;;;;;;;238.02;171.25;;;256.50;2252.80;;;;;;5054745;28;20100;-62
2021/12/31 07:18:37;;;;;;;268.20;196.07;;;256.60;2252.80;;;;;;5054784;28;20033;-67
2021/12/31 07:21:03;;;;;;;261.67;187.52;;;256.60;2252.80;;;;;;5054520;28;20078;-65
2021/12/31 07:23:28;;;;;;;252.50;180.20;;;256.60;2252.80;;;;;;5054694;28;20503;-65
2021/12/31 07:25:54;;;;;;;281.85;206.85;;;256.70;2252.80;;;;;;5054480;28;20056;-68
2021/12/31 07:28:20;;;;;;;300.10;216.55;;;256.60;2252.80;;;;;;5054540;28;20100;-65
2021/12/31 07:30:47;;;;;;;297.80;217.32;;;256.70;2252.80;;;;;;5054105;28;20441;-68
2021/12/31 07:33:17;;;;;;;269.52;200.73;;;256.60;2252.80;;;;;;5054398;28;20033;-66
2021/12/31 07:35:43;;;;;;;278.60;202.15;;;256.50;2252.80;;;;;;5053159;28;20025;-65
2021/12/31 07:38:17;;;;;;;277.17;199.95;;;256.70;2252.80;;;;;;5054352;28;20104;-64
2021/12/31 07:40:44;;;;;;;279.77;212.13;;;256.50;2252.80;;;;;;5054427;28;20025;-65
2021/12/31 07:43:10;;;;;;;332.88;241.27;;;256.50;2252.80;;;;;;5052577;28;20429;-64
2021/12/31 07:45:37;;;;;;;366.70;265.88;;;256.60;2252.80;;;;;;5054338;28;20037;-67
2021/12/31 07:48:03;;;;;;;313.65;234.02;;;256.80;2252.80;;;;;;5054174;28;20081;-66
2021/12/31 07:50:30;;;;;;;299.05;215.10;;;;;;;;;;5054050;28;20036;-66
2021/12/31 07:52:56;;;;;;;295.58;225.77;;;;;;;;;;5054074;28;20033;-68
2021/12/31 07:55:22;;;;;;;301.38;225.00;;;;;;;;;;5053950;28;20437;-66
2021/12/31 07:57:48;;;;;;;275.55;198.98;;;;;;;;;;5053744;28;20048;-64
2021/12/31 08:00:15;;;;;;;256.65;191.32;;;;;;;;;;5053385;28;20049;-65
2021/12/31 08:02:41;;;;;;;243.32;183.57;;;;;;;;;;5053691;28;20083;-66
2021/12/31 08:05:07;;;;;;;359.25;235.68;;;;;;;;;;5053624;28;20052;-67
2021/12/31 08:07:33;;;;;;;406.13;274.23;;;;;;;;;;5046752;28;20014;-66
2021/12/31 08:09:59;;;;;;;269.17;202.00;;;282.50;2278.40;;;;;;5052617;28;20383;-67
2021/12/31 08:12:25;;;;;;;272.73;196.55;;;;;;;;;;5051283;28;20020;-68
2021/12/31 08:14:51;;;;;;;253.93;191.40;;;;;;;;;;5033352;28;20717;-68
2021/12/31 08:17:17;;;;;;;303.75;221.57;;;;;;;;;;5033333;28;20026;-66
2021/12/31 08:19:43;;;;;;;256.05;192.82;;;;;;;;;;5033035;28;20075;-67
2021/12/31 08:22:10;;;;;;;269.35;199.05;;;;;;;;;;5033624;28;20101;-64
2021/12/31 08:24:36;;;;;;;272.77;205.85;;;;;;;;;;5033372;28;20033;-67
2021/12/31 08:27:02;;;;;;;255.98;197.65;;;;;;;;;;5033051;28;20025;-67
2021/12/31 08:29:28;;;;;;;271.52;206.43;;;;;;;;;;5033173;28;20498;-66
2021/12/31 08:31:54;;;;;;;256.40;203.23;;;;;;;;;;5032947;28;20056;-69
2021/12/31 08:34:20;;;;;;;253.50;194.30;;;;;;;;;;5033355;28;20038;-67
2021/12/31 08:36:46;;;;;;;267.75;204.90;;;;;;;;;;5033124;28;20387;-68
2021/12/31 08:39:12;;;;;;;263.20;203.32;;;;;;;;;;5045560;28;20029;-66
2021/12/31 08:41:39;;;;;;;269.52;204.52;;;;;;;;;;5052841;28;20024;-66
2021/12/31 08:44:07;;;;;;;258.80;204.20;;;;;;;;;;5052874;28;20087;-64
2021/12/31 08:46:34;;;;;;;264.35;210.68;;;;;;;;;;5032610;28;20132;-66
2021/12/31 08:49:00;;;;;;;270.85;214.93;;;;;;;;;;5045706;28;20111;-65
2021/12/31 08:51:26;;;;;;;287.95;218.63;;;;;;;;;;5044221;28;20025;-66
2021/12/31 08:53:53;;;;;;;290.42;224.50;;;;;;;;;;5031561;28;20415;-65
2021/12/31 08:56:19;;;;;;;322.00;247.45;;;;;;;;;;5032521;28;20117;-64
2021/12/31 08:58:46;;;;;;;293.88;224.30;;;;;;;;;;5032643;28;20491;-65
2021/12/31 09:01:12;;;;;;;296.02;228.95;;;;;;;;;;5032358;28;20060;-65
2021/12/31 09:03:38;;;;;;;282.42;218.15;;;;;;;;;;5032442;28;20051;-66
2021/12/31 09:06:04;;;;;;;298.00;232.52;;;;;;;;;;5048502;28;20075;-67
2021/12/31 09:08:30;;;;;;;243.35;192.35;;;;;;;;;;5052225;28;20442;-65
2021/12/31 09:10:56;;;;;;;241.43;186.10;;;;;;;;;;5052042;28;20364;-64
2021/12/31 09:13:22;;;;;;;231.57;174.85;;;;;;;;;;5052140;28;20032;-64
2021/12/31 09:15:48;;;;;;;218.23;166.88;;;;;;;;;;5052048;28;20028;-65
2021/12/31 09:18:14;;;;;;;236.65;179.75;;;;;;;;;;5052157;28;20040;-64
2021/12/31 09:20:41;;;;;;;234.35;181.10;;;;;;;;;;5052016;28;20086;-66
2021/12/31 09:23:07;;;;;;;238.27;181.82;;;;;;;;;;5052073;28;20057;-63
2021/12/31 09:25:33;;;;;;;242.40;185.25;;;;;;;;;;5051740;28;20092;-65
2021/12/31 09:27:59;;;;;;;247.70;187.13;;;;;;;;;;5052263;28;20029;-63
2021/12/31 09:30:26;;;;;;;250.00;193.90;;;;;;;;;;5051220;28;20037;-63
2021/12/31 09:32:52;;;;;;;240.23;186.35;;;;;;;;;;5052162;28;20037;-64
2021/12/31 09:35:18;;;;;;;253.18;196.00;;;333.00;2329.60;;;;;;5052102;28;20029;-64
2021/12/31 09:37:43;;;;;;;254.85;203.20;;;333.00;2329.60;;;;;;5051632;28;20027;-64
2021/12/31 09:40:11;;;;;;;261.10;199.05;;;333.10;2329.60;;;;;;5050403;28;20189;-62
2021/12/31 09:42:38;;;;;;;302.50;230.40;;;333.10;2329.60;;;;;;5051957;28;20032;-65
2021/12/31 09:45:05;;;;;;;281.00;216.40;;;333.20;2329.60;;;;;;5043587;28;20025;-62
2021/12/31 09:47:31;;;;;;;281.75;217.95;;;;;;;;;;5030114;28;20082;-63
2021/12/31 09:49:57;;;;;;;283.40;220.13;;;;;;;;;;5031808;28;20025;-62
2021/12/31 09:52:23;;;;;;;275.70;214.18;;;;;;;;;;5031620;28;20030;-63
2021/12/31 09:54:49;;;;;;;259.08;207.55;;;;;;;;;;5031740;28;20550;-63
2021/12/31 09:57:17;;;;;;;292.10;235.20;;;;;;;;;;5031503;28;20026;-64
2021/12/31 09:59:43;;;;;;;293.63;233.45;;;;;;;;;;5031628;28;20030;-63
2021/12/31 10:02:10;;;;;;;272.98;218.80;;;;;;;;;;5031541;28;20030;-65
2021/12/31 10:04:55;;;;;;;292.13;229.38;;;;;;;;;;5031513;28;20511;-64
2021/12/31 10:07:23;;;;;;;272.42;213.77;;;;;;;;;;5030230;28;20365;-64
2021/12/31 10:10:10;;;;;;;257.42;208.27;;;;;;;;;;5030853;28;20075;-65
2021/12/31 10:12:59;;;;;;;278.15;226.77;;;;;;;;;;5048879;28;20483;-65
2021/12/31 10:15:26;;;;;;;309.48;241.10;;;;;;;;;;5050686;28;20029;-63
2021/12/31 10:17:53;;;;;;;397.45;296.13;;;;;;;;;;5050923;28;20486;-66
2021/12/31 10:20:20;;;;;;;298.90;231.70;;;384.00;2329.60;;;;;;5050998;28;20409;-65
2021/12/31 10:22:46;;;;;;;337.13;264.73;;;384.30;2329.60;;;;;;5050607;28;20029;-66
2021/12/31 10:25:19;;;;;;;318.90;257.77;;;;;;;;;;5050713;28;20044;-67
2021/12/31 10:27:45;;;;;;;292.83;233.05;;;410.10;2355.20;;;;;;5051080;28;20025;-67
2021/12/31 10:30:11;;;;;;;284.90;232.73;;;409.70;2355.20;;;;;;5030953;28;20033;-66
2021/12/31 10:32:40;;;;;;;300.20;241.85;;;384.90;2329.60;;;;;;5030956;28;20104;-65
2021/12/31 10:35:20;;;;;;;295.33;234.10;;;384.60;2329.60;;;;;;5030501;28;20033;-67
2021/12/31 10:37:51;;;;;;;293.33;238.00;;;;;;;;;;5049730;28;20032;-66
2021/12/31 10:40:29;;;;;;;291.73;231.57;;;384.40;2329.60;;;;;;5030687;28;20022;-65
2021/12/31 10:43:16;;;;;;;291.75;233.40;;;384.20;2329.60;;;;;;5050269;28;20025;-65
2021/12/31 10:46:02;;;;;;;289.77;237.45;;;;;;;;;;5054421;28;20037;-66
2021/12/31 10:48:42;;;;;;;307.90;247.45;;;;;;;;;;5054191;28;20021;-67
2021/12/31 10:51:09;;;;;;;332.60;265.10;;;;;;;;;;5054357;28;20082;-64
2021/12/31 10:53:37;;;;;;;313.92;252.10;;;;;;;;;;5054267;28;20375;-64
2021/12/31 10:56:11;;;;;;;307.48;246.00;;;;;;;;;;5047573;28;20024;-62
2021/12/31 10:58:37;;;;;;;303.67;234.98;;;;;;;;;;5034240;28;20503;-63
2021/12/31 11:01:05;;;;;;;303.20;242.93;;;;;;;;;;5033994;28;20029;-64
2021/12/31 11:03:32;;;;;;;293.30;235.40;;;;;;;;;;5034178;28;20518;-64
2021/12/31 11:05:58;;;;;;;351.40;289.40;;;;;;;;;;5033809;28;20029;-65
2021/12/31 11:08:24;;;;;;;319.33;262.73;;;;;;;;;;5036079;28;20017;-62
2021/12/31 11:10:51;;;;;;;310.73;257.48;;;;;;;;;;5044656;28;20034;-63
2021/12/31 11:13:21;;;;;;;293.55;230.65;;;;;;;;;;5032261;28;20065;-66
2021/12/31 11:15:49;;;;;;;302.63;240.13;;;;;;;;;;5033827;28;20021;-62
2021/12/31 11:18:19;;;;;;;293.10;237.43;;;;;;;;;;5033754;28;20408;-63
2021/12/31 11:20:46;;;;;;;301.38;237.90;;;;;;;;;;5033664;28;20028;-64
2021/12/31 11:23:12;;;;;;;335.10;270.42;;;;;;;;;;5033649;28;20044;-63
2021/12/31 11:25:49;;;;;;;289.25;228.45;;;;;;;;;;5034114;28;20017;-63
2021/12/31 11:28:23;;;;;;;294.88;235.50;;;;;;;;;;5034080;28;20380;-63
2021/12/31 11:30:50;;;;;;;294.33;237.13;;;;;;;;;;5033696;28;20111;-64
2021/12/31 11:33:20;;;;;;;278.55;225.43;;;;;;;;;;5033833;28;20187;-64
2021/12/31 11:36:06;;;;;;;315.63;248.15;;;384.20;2329.60;;;;;;5033348;28;20021;-64
2021/12/31 11:38:32;;;;;;;275.73;213.70;;;384.10;2329.60;;;;;;5051006;28;20021;-64
2021/12/31 11:41:08;;;;;;;263.33;209.50;;;384.20;2329.60;;;;;;5054033;28;20043;-64
2021/12/31 11:43:41;;;;;;;276.65;213.80;;;384.20;2329.60;;;;;;5048068;28;20154;-62
2021/12/31 11:46:12;;;;;;;324.48;237.73;;;384.40;2329.60;;;;;;5053909;28;20025;-65
2021/12/31 11:51:38;;;;;;;230.50;181.55;;;384.30;2329.60;;;;;;5053965;28;19916;-66
2021/12/31 11:54:07;;;;;;;250.38;199.70;;;384.30;2329.60;;;;;;5050486;28;20041;-64
2021/12/31 11:56:39;;;;;;;239.95;189.05;;;384.40;2329.60;;;;;;5051331;28;20419;-66
2021/12/31 11:59:10;;;;;;;248.93;201.90;;;384.40;2329.60;;;;;;5051476;28;20075;-66
2021/12/31 12:01:36;;;;;;;230.00;186.57;;;;;;;;;;5051360;28;20061;-63
2021/12/31 12:04:21;;;;;;;245.45;205.40;;;384.80;2329.60;;;;;;5051015;28;20090;-64
2021/12/31 12:07:09;;;;;;;240.60;190.40;;;384.70;2329.60;;;;;;5051150;28;20037;-63
2021/12/31 12:09:41;;;;;;;242.27;193.00;;;409.60;2355.20;;;;;;5051010;28;20498;-63
2021/12/31 12:12:07;;;;;;;;;;;384.90;2329.60;;;;;;5051699;28;20410;-65
2021/12/31 12:14:47;;;;;;;208.93;166.88;;;;;;;;;;5050806;28;20025;-64
2021/12/31 12:17:17;;;;;;;190.93;150.95;;;;;;;;;;5051061;28;20025;-66
2021/12/31 12:19:51;;;;;;;226.18;164.93;;;;;;;;;;5051043;28;20051;-65
2021/12/31 12:22:33;;;;;;;215.38;170.52;;;;;;;;;;5051242;28;20600;-63
2021/12/31 12:24:59;;;;;;;;;;;;;;;;;;5034903;28;20044;-65
2021/12/31 12:27:25;;;;;;;196.65;148.07;;;;;;;;;;5051093;28;19912;-64
2021/12/31 12:29:52;;;;;;;197.30;152.45;;;;;;;;;;5049894;28;20037;-64
2021/12/31 12:32:30;;;;;;;177.82;138.45;;;;;;;;;;5032881;28;20062;-64
2021/12/31 12:34:56;;;;;;;189.23;142.20;;;;;;;;;;5032863;28;20040;-61
2021/12/31 12:37:31;;;;;;;198.75;146.13;;;;;;;;;;5032987;28;20026;-61
2021/12/31 12:39:58;;;;;;;197.43;142.77;;;;;;;;;;5049224;28;20025;-61
2021/12/31 12:42:24;;;;;;;201.70;147.48;;;;;;;;;;5052589;28;20447;-61
2021/12/31 12:44:59;;;;;;;207.75;139.23;;;;;;;;;;5052676;28;20106;-64
2021/12/31 12:47:25;;;;;;;198.38;136.10;;;;;;;;;;5052469;28;20029;-61
2021/12/31 12:49:57;;;;;;;184.23;127.70;;;;;;;;;;5052473;28;20071;-64
2021/12/31 12:52:24;;;;;;;179.02;134.70;;;;;;;;;;5052299;28;20059;-60
2021/12/31 12:55:07;;;;;;;169.48;122.38;;;;;;;;;;5052613;28;20032;-63
2021/12/31 12:57:33;;;;;;;178.30;122.30;;;;;;;;;;5052289;28;20116;-64
2021/12/31 12:59:59;;;;;;;154.30;119.05;;;;;;;;;;5052740;28;20033;-64
2021/12/31 13:02:41;;;;;;;165.02;114.20;;;;;;;;;;5052266;28;20032;-63
2021/12/31 13:05:12;;;;;;;158.80;110.60;;;;;;;;;;5052341;28;20104;-65
2021/12/31 13:07:52;;;;;;;161.50;117.95;;;;;;;;;;5052177;28;20142;-63
2021/12/31 13:10:18;;;;;;;169.18;133.10;;;;;;;;;;5052055;28;20120;-63
2021/12/31 13:12:46;;;;;;;186.02;130.43;;;;;;;;;;5052232;28;20551;-66
2021/12/31 13:15:12;;;;;;;169.75;126.05;;;;;;;;;;5052297;28;20028;-62
2021/12/31 13:17:39;;;;;;;167.43;118.50;;;;;;;;;;5052149;28;20029;-64
2021/12/31 13:20:11;;;;;;;160.77;111.22;;;;;;;;;;5052754;28;20361;-62
2021/12/31 13:22:36;;;;;;;;;;;;;;;;;;5052816;28;20013;-63
2021/12/31 13:25:03;;;;;;;122.63;94.85;;;;;;;;;;5051751;28;20007;-62
2021/12/31 13:27:30;;;;;;;154.95;108.78;;;;;;;;;;5052228;28;20033;-63